Time;durP1;ratioP1;P1;durP2;ratioP2;P2;SDS_P1;SDS_P2;PMS_P1;PMS_P2;Temp;Humidity;BMP_temperature;BMP_pressure;BME280_temperature;BME280_humidity;BME280_pressure;Samples;Min_cycle;Max_cycle;Signal;HPM_P1;HPM_P2
2021/09/07 00:00:25;;;;;;;13.90;9.27;;;;;;;15.80;89.84;98668.00;4960975;28;20631;-61
2021/09/07 00:02:50;;;;;;;20.08;9.90;;;;;;;15.43;89.32;98666.38;4961266;28;20030;-60
2021/09/07 00:05:15;;;;;;;16.50;10.60;;;;;;;15.25;91.61;98659.41;4961402;28;20054;-60
2021/09/07 00:07:41;;;;;;;16.13;10.80;;;;;;;15.12;92.50;98661.78;4961619;28;20105;-63
2021/09/07 00:10:09;;;;;;;16.75;10.63;;;;;;;15.05;92.63;98658.59;4961037;28;20031;-60
2021/09/07 00:12:35;;;;;;;23.15;11.05;;;;;;;14.97;93.20;98658.13;4960836;28;20030;-62
2021/09/07 00:15:01;;;;;;;16.00;10.77;;;;;;;14.98;93.03;98657.19;4961682;28;20038;-60
2021/09/07 00:17:26;;;;;;;14.65;9.88;;;;;;;14.91;93.07;98650.56;4958692;28;20790;-61
2021/09/07 00:19:52;;;;;;;20.52;10.98;;;;;;;14.93;93.82;98653.97;4959976;28;20047;-61
2021/09/07 00:22:17;;;;;;;14.90;10.40;;;;;;;15.07;92.59;98641.00;4960434;28;20045;-61
2021/09/07 00:24:43;;;;;;;17.95;10.63;;;;;;;14.86;93.84;98642.06;4961163;28;20496;-60
2021/09/07 00:27:08;;;;;;;21.25;10.55;;;;;;;15.10;93.09;98645.25;4960909;28;20042;-63
2021/09/07 00:29:34;;;;;;;15.45;9.95;;;;;;;15.27;91.54;98645.25;4961073;28;20027;-61
2021/09/07 00:32:07;;;;;;;16.05;10.05;;;;;;;15.37;90.86;98643.88;4960777;28;20038;-60
2021/09/07 00:34:34;;;;;;;16.67;10.18;;;;;;;15.18;91.36;98633.44;4960679;28;20084;-61
2021/09/07 00:37:00;;;;;;;16.10;9.80;;;;;;;15.26;90.97;98634.84;4960806;28;20034;-60
2021/09/07 00:39:25;;;;;;;13.32;9.82;;;;;;;14.93;93.15;98639.03;4960538;28;20039;-60
2021/09/07 00:41:50;;;;;;;18.33;10.68;;;;;;;14.83;93.43;98646.53;4959197;28;20125;-61
2021/09/07 00:44:18;;;;;;;15.65;10.38;;;;;;;14.57;94.63;98644.25;4960956;28;20122;-61
2021/09/07 00:46:52;;;;;;;16.60;10.38;;;;;;;14.59;94.61;98640.69;4959986;28;20050;-60
2021/09/07 00:49:19;;;;;;;19.13;11.45;;;;;;;14.53;94.56;98637.44;4960534;28;20043;-60
2021/09/07 00:51:45;;;;;;;15.85;10.43;;;;;;;14.55;94.40;98633.81;4960248;28;20047;-61
2021/09/07 00:54:14;;;;;;;17.92;10.57;;;;;;;14.69;93.62;98635.81;4961132;28;20567;-60
2021/09/07 00:56:43;;;;;;;16.05;10.60;;;;;;;14.64;93.35;98643.06;4959990;28;20673;-62
2021/09/07 00:59:10;;;;;;;16.25;10.80;;;;;;;14.68;94.92;98639.38;4960833;28;20035;-61
2021/09/07 01:01:36;;;;;;;19.08;11.00;;;;;;;14.38;94.87;98637.22;4959910;28;20047;-61
2021/09/07 01:04:01;;;;;;;18.58;10.52;;;;;;;14.58;94.13;98638.97;4960657;28;20411;-61
2021/09/07 01:06:27;;;;;;;15.48;10.20;;;;;;;14.51;94.71;98644.53;4959596;28;20085;-61
2021/09/07 01:08:53;;;;;;;14.15;9.60;;;;;;;14.52;93.76;98635.72;4959575;28;20415;-61
2021/09/07 01:11:19;;;;;;;15.90;9.57;;;;;;;14.48;94.36;98639.44;4958010;28;20827;-61
2021/09/07 01:13:45;;;;;;;18.40;10.52;;;;;;;14.40;94.09;98637.16;4960489;28;20058;-60
2021/09/07 01:16:11;;;;;;;14.60;9.85;;;;;;;14.45;93.80;98643.91;4959898;28;20966;-60
2021/09/07 01:18:36;;;;;;;17.48;10.40;;;;;;;14.47;94.01;98635.97;4960617;28;20113;-60
2021/09/07 01:21:05;;;;;;;20.05;11.02;;;;;;;14.38;93.83;98625.88;4958349;28;20066;-60
2021/09/07 01:23:30;;;;;;;16.95;10.63;;;;;;;14.19;95.71;98616.25;4960904;28;20023;-61
2021/09/07 01:25:56;;;;;;;15.32;10.52;;;;;;;14.35;94.05;98621.63;4959834;28;20039;-61
2021/09/07 01:28:21;;;;;;;20.70;10.90;;;;;;;14.67;93.14;98632.44;4960017;28;20046;-60
2021/09/07 01:30:47;;;;;;;18.35;10.80;;;;;;;14.32;94.28;98621.78;4959825;28;20046;-60
2021/09/07 01:33:12;;;;;;;15.60;10.50;;;;;;;14.37;93.61;98630.28;4960477;28;20090;-61
2021/09/07 01:35:39;;;;;;;16.42;10.82;;;;;;;14.37;93.36;98632.03;4959982;28;20050;-60
2021/09/07 01:38:05;;;;;;;15.82;9.55;;;;;;;14.55;94.03;98632.97;4957026;28;20025;-60
2021/09/07 01:40:30;;;;;;;25.48;10.95;;;;;;;14.25;94.20;98625.59;4960502;28;20035;-60
2021/09/07 01:42:56;;;;;;;15.40;10.65;;;;;;;14.17;94.51;98627.72;4960185;28;20027;-61
2021/09/07 01:45:21;;;;;;;18.20;10.63;;;;;;;14.06;95.39;98630.81;4959853;28;20049;-61
2021/09/07 01:47:50;;;;;;;16.15;10.85;;;;;;;14.08;95.28;98632.47;4959059;28;20030;-61
2021/09/07 01:50:15;;;;;;;19.73;10.82;;;;;;;14.15;94.49;98625.19;4959362;28;20034;-60
2021/09/07 01:52:41;;;;;;;17.15;11.32;;;;;;;14.01;95.50;98633.66;4960181;28;20030;-60
2021/09/07 01:55:06;;;;;;;15.43;10.15;;;;;;;13.94;95.13;98634.00;4959799;28;20111;-63
2021/09/07 01:57:32;;;;;;;15.63;10.23;;;;;;;13.61;97.44;98635.41;4959603;28;20019;-63
2021/09/07 01:59:57;;;;;;;17.33;10.82;;;;;;;13.66;96.34;98651.81;4959056;28;20023;-62
2021/09/07 02:02:23;;;;;;;15.70;10.30;;;;;;;13.43;96.83;98636.19;4958443;28;20050;-60
2021/09/07 02:04:48;;;;;;;20.10;10.23;;;;;;;13.33;98.08;98640.16;4959470;28;20033;-61
2021/09/07 02:07:13;;;;;;;17.85;11.02;;;;;;;13.49;96.07;98644.66;4959058;28;20031;-61
2021/09/07 02:09:39;;;;;;;17.73;10.73;;;;;;;13.45;96.61;98644.84;4959015;28;20134;-60
2021/09/07 02:12:06;;;;;;;19.05;9.80;;;;;;;13.78;96.02;98639.06;4957300;28;20035;-61
2021/09/07 02:14:32;;;;;;;17.05;10.20;;;;;;;13.92;94.12;98639.31;4958936;28;20023;-60
2021/09/07 02:16:57;;;;;;;17.25;11.07;;;;;;;13.83;95.04;98645.81;4959044;28;20552;-60
2021/09/07 02:19:23;;;;;;;19.80;10.68;;;;;;;13.71;95.36;98653.38;4956860;28;20509;-61
2021/09/07 02:21:48;;;;;;;17.88;10.65;;;;;;;13.77;94.66;98645.25;4957854;28;20037;-60
2021/09/07 02:24:14;;;;;;;21.13;10.50;;;;;;;13.82;95.28;98653.75;4958817;28;20054;-60
2021/09/07 02:26:40;;;;;;;18.25;10.40;;;;;;;13.62;95.61;98650.22;4958300;28;20039;-60
2021/09/07 02:29:05;;;;;;;21.02;10.63;;;;;;;13.56;96.87;98647.84;4959502;28;20027;-61
2021/09/07 02:31:31;;;;;;;16.63;10.40;;;;;;;13.56;96.41;98645.22;4959165;28;20034;-61
2021/09/07 02:33:56;;;;;;;15.93;10.18;;;;;;;13.66;95.65;98641.31;4959104;28;20031;-61
2021/09/07 02:36:23;;;;;;;16.35;10.60;;;;;;;13.58;96.22;98645.19;4958735;28;20113;-61
2021/09/07 02:38:50;;;;;;;20.85;10.48;;;;;;;13.49;96.34;98628.94;4959511;28;20117;-61
2021/09/07 02:41:15;;;;;;;19.13;11.40;;;;;;;13.47;97.08;98637.75;4961963;28;20046;-64
2021/09/07 02:43:41;;;;;;;21.85;10.40;;;;;;;13.61;95.99;98629.31;4962831;28;20030;-63
2021/09/07 02:46:06;;;;;;;17.25;10.35;;;;;;;13.56;96.36;98632.13;4961453;28;20934;-63
2021/09/07 02:48:31;;;;;;;14.98;9.25;;;;;;;14.03;94.01;98625.72;4966867;28;21012;-61
2021/09/07 02:50:57;;;;;;;18.27;10.43;;;;;;;13.69;94.84;98620.22;4960615;28;20031;-61
2021/09/07 02:53:25;;;;;;;15.85;10.57;;;;;;;13.46;95.33;98620.34;4961426;28;20504;-61
2021/09/07 02:55:51;;;;;;;17.08;9.93;;;;;;;13.50;95.39;98616.69;4961826;28;20256;-61
2021/09/07 02:58:17;;;;;;;17.08;10.02;;;;;;;13.68;94.89;98610.63;4961395;28;20074;-61
2021/09/07 03:00:43;;;;;;;14.27;9.82;;;;;;;13.57;95.25;98609.41;4965223;28;20120;-61
2021/09/07 03:03:09;;;;;;;17.65;10.43;;;;;;;13.54;94.89;98605.13;4961161;28;20089;-60
2021/09/07 03:05:34;;;;;;;15.13;10.00;;;;;;;13.33;95.32;98598.22;4961956;28;20038;-61
2021/09/07 03:08:00;;;;;;;14.43;9.82;;;;;;;13.39;96.64;98605.81;4962405;28;20035;-61
2021/09/07 03:10:25;;;;;;;17.63;10.48;;;;;;;13.40;94.89;98600.50;4962470;28;20059;-60
2021/09/07 03:12:50;;;;;;;16.83;9.68;;;;;;;13.20;96.22;98593.47;4961354;28;20027;-61
2021/09/07 03:15:16;;;;;;;15.23;9.85;;;;;;;13.30;95.83;98602.66;4962312;28;20027;-61
2021/09/07 03:17:41;;;;;;;18.10;10.02;;;;;;;13.41;94.61;98598.72;4962043;28;20022;-61
2021/09/07 03:20:07;;;;;;;20.77;10.68;;;;;;;13.14;96.22;98598.97;4959528;28;20023;-60
2021/09/07 03:22:33;;;;;;;16.63;10.32;;;;;;;13.16;96.52;98596.25;4961634;28;20109;-60
2021/09/07 03:25:00;;;;;;;20.88;10.98;;;;;;;13.23;95.17;98601.19;4961380;28;20692;-60
2021/09/07 03:27:26;;;;;;;15.18;10.10;;;;;;;13.23;95.71;98590.72;4960898;28;20062;-61
2021/09/07 03:29:51;;;;;;;15.02;10.00;;;;;;;13.21;96.13;98591.69;4964051;28;20054;-62
2021/09/07 03:32:16;;;;;;;14.98;9.63;;;;;;;13.18;96.24;98590.06;4963429;28;20039;-61
2021/09/07 03:34:41;;;;;;;20.50;10.15;;;;;;;13.30;95.57;98593.91;4963814;28;20121;-61
2021/09/07 03:37:07;;;;;;;16.20;10.15;;;;;;;13.17;95.40;98588.34;4962935;28;20110;-61
2021/09/07 03:39:32;;;;;;;16.30;10.35;;;;;;;13.24;95.32;98602.88;4963550;28;20027;-61
2021/09/07 03:41:57;;;;;;;18.70;9.90;;;;;;;13.16;95.50;98605.00;4963054;28;20073;-62
2021/09/07 03:44:23;;;;;;;18.58;11.05;;;;;;;13.19;95.86;98602.22;4962689;28;20034;-61
2021/09/07 03:46:48;;;;;;;15.13;10.00;;;;;;;13.15;95.97;98600.66;4961479;28;20050;-62
2021/09/07 03:49:13;;;;;;;15.43;9.82;;;;;;;13.70;94.40;98592.22;4963485;28;20049;-61
2021/09/07 03:51:39;;;;;;;16.27;10.55;;;;;;;13.36;94.29;98598.06;4961270;28;20030;-62
2021/09/07 03:54:04;;;;;;;17.35;10.30;;;;;;;13.47;94.98;98601.94;4962921;28;20518;-62
2021/09/07 03:56:30;;;;;;;19.13;10.48;;;;;;;13.74;93.15;98599.03;4962406;28;20041;-62
2021/09/07 03:58:56;;;;;;;16.17;10.82;;;;;;;13.66;92.80;98602.00;4963827;28;20027;-61
2021/09/07 04:01:21;;;;;;;16.52;10.63;;;;;;;13.69;93.44;98596.63;4962938;28;20049;-61
2021/09/07 04:03:46;;;;;;;22.55;11.23;;;;;;;13.52;94.21;98600.91;4963783;28;20117;-61
2021/09/07 04:06:12;;;;;;;16.00;10.27;;;;;;;13.77;92.93;98600.69;4962918;28;20035;-61
2021/09/07 04:08:37;;;;;;;16.85;10.57;;;;;;;13.73;93.33;98601.72;4963539;28;20022;-61
2021/09/07 04:11:02;;;;;;;15.88;10.30;;;;;;;13.56;94.67;98610.31;4962951;28;20050;-60
2021/09/07 04:13:28;;;;;;;14.23;10.25;;;;;;;13.56;93.52;98605.91;4962176;28;20109;-61
2021/09/07 04:15:53;;;;;;;15.60;10.30;;;;;;;13.58;93.97;98609.34;4962115;28;20558;-61
2021/09/07 04:18:18;;;;;;;15.75;10.40;;;;;;;13.40;94.14;98613.63;4962381;28;20034;-61
2021/09/07 04:20:44;;;;;;;17.92;10.10;;;;;;;13.41;94.60;98617.06;4962393;28;20031;-61
2021/09/07 04:23:09;;;;;;;15.45;10.10;;;;;;;13.46;94.01;98615.13;4963256;28;20393;-62
2021/09/07 04:25:36;;;;;;;16.63;10.57;;;;;;;13.49;93.73;98621.06;4962415;28;20458;-63
2021/09/07 04:28:02;;;;;;;17.77;10.75;;;;;;;13.40;94.53;98620.59;4962952;28;20062;-61
2021/09/07 04:30:27;;;;;;;13.20;9.48;;;;;;;13.77;94.14;98624.28;4960673;28;20031;-62
2021/09/07 04:32:53;;;;;;;17.77;10.95;;;;;;;13.66;92.64;98622.97;4960910;28;20585;-61
2021/09/07 04:35:18;;;;;;;17.58;10.40;;;;;;;13.52;94.28;98622.69;4959962;28;20034;-62
2021/09/07 04:37:44;;;;;;;19.48;10.50;;;;;;;13.55;94.37;98626.97;4959356;28;20430;-62
2021/09/07 04:40:09;;;;;;;18.30;10.48;;;;;;;13.64;93.92;98629.19;4961300;28;20025;-62
2021/09/07 04:42:35;;;;;;;16.70;10.77;;;;;;;13.80;93.08;98624.13;4960984;28;20105;-62
2021/09/07 04:45:00;;;;;;;16.92;10.07;;;;;;;13.72;93.12;98628.88;4959299;28;20027;-61
2021/09/07 04:47:25;;;;;;;17.13;10.75;;;;;;;13.78;93.48;98628.59;4963455;28;20062;-61
2021/09/07 04:49:51;;;;;;;14.75;9.27;;;;;;;13.75;93.69;98626.97;4963886;28;20045;-62
2021/09/07 04:52:16;;;;;;;14.70;9.95;;;;;;;13.78;93.15;98632.03;4960461;28;20041;-61
2021/09/07 04:54:41;;;;;;;17.45;11.63;;;;;;;13.63;93.63;98627.47;4960323;28;20443;-62
2021/09/07 04:57:07;;;;;;;19.08;9.73;;;;;;;13.72;93.76;98637.56;4960051;28;20077;-61
2021/09/07 04:59:32;;;;;;;16.90;10.20;;;;;;;13.87;92.81;98643.91;4960969;28;20065;-61
2021/09/07 05:01:57;;;;;;;17.73;10.90;;;;;;;13.70;93.23;98644.66;4951346;28;20077;-61
2021/09/07 05:04:23;;;;;;;19.33;11.15;;;;;;;13.77;92.56;98643.47;4962130;28;20065;-61
2021/09/07 05:06:48;;;;;;;15.38;10.35;;;;;;;13.90;92.64;98641.16;4962844;28;20453;-60
2021/09/07 05:09:14;;;;;;;20.30;10.43;;;;;;;13.58;93.84;98646.06;4945950;28;20110;-59
2021/09/07 05:11:39;;;;;;;15.57;10.13;;;;;;;13.63;93.87;98643.22;4962634;28;20070;-61
2021/09/07 05:14:06;;;;;;;15.85;9.88;;;;;;;13.66;94.00;98643.94;4963887;28;20038;-61
2021/09/07 05:16:31;;;;;;;15.25;10.25;;;;;;;13.81;93.02;98644.19;4962650;28;20074;-61
2021/09/07 05:18:57;;;;;;;16.35;9.30;;;;;;;14.16;91.64;98641.78;4963234;28;20050;-61
2021/09/07 05:21:22;;;;;;;13.65;9.30;;;;;;;14.38;89.98;98637.22;4962874;28;20125;-62
2021/09/07 05:23:47;;;;;;;15.60;9.95;;;;;;;14.45;89.72;98636.03;4962146;28;20066;-61
2021/09/07 05:26:13;;;;;;;13.57;9.38;;;;;;;14.39;90.29;98641.56;4961275;28;20053;-58
2021/09/07 05:28:38;;;;;;;15.98;9.77;;;;;;;14.37;89.17;98640.78;4962657;28;20069;-59
2021/09/07 05:31:03;;;;;;;15.40;9.90;;;;;;;14.38;89.90;98645.09;4962300;28;20049;-59
2021/09/07 05:33:29;;;;;;;14.80;9.77;;;;;;;14.18;90.34;98653.88;4963269;28;20029;-60
2021/09/07 05:35:54;;;;;;;13.52;9.68;;;;;;;14.16;90.54;98657.50;4963055;28;20717;-59
2021/09/07 05:38:20;;;;;;;16.02;9.77;;;;;;;14.54;90.70;98647.00;4962757;28;20027;-61
2021/09/07 05:40:45;;;;;;;17.25;9.75;;;;;;;15.02;86.96;98637.75;4962389;28;20127;-59
2021/09/07 05:43:11;;;;;;;15.95;9.57;;;;;;;14.94;87.91;98647.78;4962772;28;20062;-63
2021/09/07 05:45:37;;;;;;;16.17;9.77;;;;;;;15.09;87.65;98635.66;4963015;28;20041;-61
2021/09/07 05:48:02;;;;;;;18.77;9.98;;;;;;;15.07;86.72;98634.88;4963179;28;20031;-64
2021/09/07 05:50:28;;;;;;;15.07;9.50;;;;;;;14.92;87.88;98639.13;4961710;28;20045;-61
2021/09/07 05:52:53;;;;;;;15.57;9.73;;;;;;;14.78;87.40;98640.63;4963157;28;20031;-62
2021/09/07 05:55:19;;;;;;;17.13;9.80;;;;;;;15.18;86.33;98641.31;4961372;28;20035;-62
2021/09/07 05:57:44;;;;;;;15.27;8.90;;;;;;;15.74;84.56;98647.28;4961510;28;20034;-62
2021/09/07 06:00:11;;;;;;;19.05;9.43;;;;;;;15.79;86.50;98654.97;4963029;28;20682;-62
2021/09/07 06:02:36;;;;;;;17.92;9.50;;;;;;;15.82;83.80;98646.88;4961126;28;20070;-62
2021/09/07 06:05:03;;;;;;;17.35;9.70;;;;;;;15.61;83.69;98647.03;4961855;28;20069;-57
2021/09/07 06:07:28;;;;;;;14.18;9.07;;;;;;;16.26;83.58;98651.56;4962361;28;20121;-63
2021/09/07 06:09:53;;;;;;;14.93;9.32;;;;;;;16.74;81.29;98644.56;4961228;28;20121;-61
2021/09/07 06:12:19;;;;;;;14.18;9.35;;;;;;;16.61;79.56;98650.59;4962162;28;20039;-62
2021/09/07 06:14:44;;;;;;;13.68;9.25;;;;;;;16.51;80.48;98645.00;4964408;28;20058;-62
2021/09/07 06:17:12;;;;;;;16.40;9.25;;;;;;;16.87;79.01;98650.03;4966278;28;20031;-63
2021/09/07 06:19:37;;;;;;;13.35;9.02;;;;;;;17.41;76.39;98654.84;4966874;28;20078;-62
2021/09/07 06:22:03;;;;;;;13.18;8.73;;;;;;;16.60;79.96;98646.25;4965340;28;20038;-62
2021/09/07 06:24:29;;;;;;;16.48;8.82;;;;;;;17.77;76.60;98650.94;4982090;28;20081;-62
2021/09/07 06:26:54;;;;;;;15.13;8.75;;;;;;;17.62;75.37;98657.16;4964405;28;20127;-62
2021/09/07 06:29:20;;;;;;;12.90;8.50;;;;;;;17.95;75.19;98643.75;4966437;28;20587;-62
2021/09/07 06:31:45;;;;;;;13.85;8.45;;;;;;;17.97;75.82;98648.94;4965328;28;20567;-63
2021/09/07 06:34:11;;;;;;;13.32;8.32;;;;;;;18.35;73.99;98645.72;4966516;28;20785;-63
2021/09/07 06:36:36;;;;;;;12.65;8.13;;;;;;;18.71;72.47;98649.63;4966019;28;20039;-63
2021/09/07 06:39:02;;;;;;;11.77;8.40;;;;;;;18.84;71.75;98647.94;4966366;28;20043;-63
2021/09/07 06:41:27;;;;;;;12.57;8.38;;;;;;;18.18;72.92;98654.69;4964816;28;20042;-63
2021/09/07 06:43:53;;;;;;;15.35;8.95;;;;;;;18.07;74.55;98658.00;4965604;28;20026;-62
2021/09/07 06:46:18;;;;;;;14.20;8.27;;;;;;;18.81;71.76;98658.69;4965840;28;20046;-62
2021/09/07 06:48:44;;;;;;;14.68;8.07;;;;;;;19.65;68.75;98654.94;4966730;28;20030;-65
2021/09/07 06:51:09;;;;;;;13.90;8.30;;;;;;;20.44;66.94;98653.00;4965380;28;20134;-62
2021/09/07 06:53:37;;;;;;;14.85;7.80;;;;;;;21.16;64.27;98649.59;4966127;28;20026;-59
2021/09/07 06:56:03;;;;;;;11.77;7.50;;;;;;;20.79;65.02;98658.47;4965916;28;20041;-63
2021/09/07 06:58:29;;;;;;;12.85;7.97;;;;;;;21.83;62.97;98658.75;4966319;28;20019;-60
2021/09/07 07:00:54;;;;;;;11.13;7.60;;;;;;;22.08;60.04;98658.56;4965580;28;20042;-60
2021/09/07 07:03:19;;;;;;;10.98;7.70;;;;;;;22.15;60.77;98658.94;4966416;28;20411;-59
2021/09/07 07:05:45;;;;;;;15.43;7.57;;;;;;;23.35;56.02;98656.47;4965071;28;20679;-60
2021/09/07 07:08:11;;;;;;;12.82;7.85;;;;;;;25.22;52.62;98652.69;4965854;28;20038;-60
2021/09/07 07:10:37;;;;;;;13.65;7.70;;;;;;;25.03;51.01;98658.81;4964108;28;20484;-62
2021/09/07 07:13:02;;;;;;;13.02;7.60;;;;;;;25.75;50.11;98654.03;4971077;28;20109;-62
2021/09/07 07:15:28;;;;;;;14.57;7.60;;;;;;;25.19;49.97;98656.44;4964764;28;20050;-61
2021/09/07 07:17:56;;;;;;;13.38;7.40;;;;;;;25.33;51.15;98651.72;4965559;28;20023;-62
2021/09/07 07:20:21;;;;;;;9.57;7.35;;;;;;;24.17;52.64;98651.25;4965382;28;20790;-61
2021/09/07 07:22:47;;;;;;;10.88;7.53;;;;;;;22.79;56.76;98655.66;4965953;28;20038;-60
2021/09/07 07:25:12;;;;;;;15.73;7.85;;;;;;;21.70;61.75;98658.84;4962866;28;20129;-62
2021/09/07 07:27:39;;;;;;;12.55;7.93;;;;;;;21.78;61.90;98650.31;4965421;28;20054;-61
2021/09/07 07:30:06;;;;;;;10.95;7.93;;;;;;;22.24;60.94;98654.69;4964673;28;20378;-63
2021/09/07 07:32:32;;;;;;;13.48;7.40;;;;;;;22.29;60.47;98655.22;4965224;28;20183;-63
2021/09/07 07:34:58;;;;;;;14.90;8.70;;;;;;;21.77;62.89;98664.56;4965389;28;20031;-62
2021/09/07 07:37:23;;;;;;;11.27;7.20;;;;;;;22.70;60.31;98665.22;4965051;28;20065;-61
2021/09/07 07:39:49;;;;;;;12.27;8.00;;;;;;;21.70;61.95;98662.34;4964573;28;20085;-61
2021/09/07 07:42:14;;;;;;;12.80;8.27;;;;;;;21.72;62.99;98667.53;4963914;28;20543;-62
2021/09/07 07:44:40;;;;;;;18.38;8.48;;;;;;;21.30;63.41;98675.09;4964872;28;20062;-62
2021/09/07 07:47:05;;;;;;;14.55;8.55;;;;;;;21.81;62.94;98676.63;4963873;28;20133;-61
2021/09/07 07:49:31;;;;;;;16.65;7.63;;;;;;;21.85;61.51;98678.06;4965418;28;20023;-60
2021/09/07 07:51:56;;;;;;;17.02;8.60;;;;;;;22.07;62.30;98686.06;4964700;28;20536;-62
2021/09/07 07:54:22;;;;;;;13.48;8.18;;;;;;;22.67;59.64;98685.88;4965716;28;20030;-62
2021/09/07 07:56:47;;;;;;;14.93;8.15;;;;;;;23.35;57.14;98685.75;4963146;28;20038;-61
2021/09/07 07:59:12;;;;;;;14.02;7.80;;;;;;;23.04;58.41;98688.25;4963896;28;20702;-60
2021/09/07 08:01:38;;;;;;;16.60;8.10;;;;;;;23.74;55.95;98688.69;4964522;28;20480;-62
2021/09/07 08:04:03;;;;;;;18.02;7.95;;;;;;;23.77;56.05;98685.78;4963424;28;20032;-60
2021/09/07 08:06:29;;;;;;;16.08;7.50;;;;;;;23.97;56.03;98692.13;4962348;28;20498;-62
2021/09/07 08:08:54;;;;;;;11.70;7.50;;;;;;;23.37;57.73;98686.47;4963646;28;20515;-62
2021/09/07 08:11:19;;;;;;;11.95;7.75;;;;;;;23.82;54.96;98680.91;4963105;28;20457;-61
2021/09/07 08:13:45;;;;;;;11.75;7.25;;;;;;;24.69;53.25;98685.88;4964339;28;20019;-61
2021/09/07 08:16:10;;;;;;;9.95;7.38;;;;;;;24.55;54.46;98686.25;4962463;28;20043;-62
2021/09/07 08:18:36;;;;;;;15.27;7.63;;;;;;;27.13;48.27;98688.16;4964092;28;20030;-62
2021/09/07 08:21:02;;;;;;;15.70;7.78;;;;;;;27.16;47.37;98692.34;4963901;28;20860;-61
2021/09/07 08:23:27;;;;;;;15.88;8.18;;;;;;;27.27;46.09;98690.31;4964499;28;20031;-61
2021/09/07 08:25:53;;;;;;;11.60;7.63;;;;;;;25.70;50.09;98693.72;4964132;28;20113;-64
2021/09/07 08:28:18;;;;;;;9.57;7.05;;;;;;;25.72;51.03;98691.75;4963331;28;20106;-62
2021/09/07 08:30:44;;;;;;;12.80;7.13;;;;;;;25.78;51.26;98686.66;4962914;28;20074;-62
2021/09/07 08:33:14;;;;;;;12.23;7.22;;;;;;;26.29;51.35;98689.97;4963148;28;20031;-62
2021/09/07 08:35:40;;;;;;;9.70;7.20;;;;;;;27.79;46.97;98681.56;4963072;28;20069;-62
2021/09/07 08:38:05;;;;;;;10.32;6.85;;;;;;;27.37;46.99;98690.25;4962626;28;20047;-62
2021/09/07 08:40:31;;;;;;;12.05;6.93;;;;;;;27.02;47.45;98686.53;4962630;28;20027;-62
2021/09/07 08:42:56;;;;;;;9.13;7.05;;;;;;;29.63;44.07;98690.06;4963519;28;20499;-65
2021/09/07 08:45:21;;;;;;;11.90;7.13;;;;;;;31.10;39.55;98680.78;4962685;28;20043;-62
2021/09/07 08:47:47;;;;;;;16.30;7.13;;;;;;;28.61;43.60;98679.41;4961975;28;20038;-61
2021/09/07 08:50:16;;;;;;;9.65;6.85;;;;;;;29.72;41.42;98683.66;4963635;28;20026;-61
2021/09/07 08:52:42;;;;;;;9.43;6.82;;;;;;;29.26;42.19;98685.16;4963966;28;20415;-64
2021/09/07 08:55:08;;;;;;;10.57;6.63;;;;;;;29.37;41.65;98693.75;4962560;28;20562;-62
2021/09/07 08:57:33;;;;;;;11.48;6.32;;;;;;;29.86;41.31;98684.03;4961808;28;20603;-61
2021/09/07 09:00:01;;;;;;;15.93;7.10;;;;;;;30.97;39.33;98693.13;4962927;28;20022;-61
2021/09/07 09:02:27;;;;;;;10.05;6.70;;;;;;;30.22;39.12;98686.28;4961964;28;20039;-63
2021/09/07 09:04:54;;;;;;;11.57;7.50;;;;;;;30.64;36.93;98687.88;4963438;28;20093;-62
2021/09/07 09:07:22;;;;;;;9.38;6.80;;;;;;;29.83;39.43;98681.66;4963086;28;20043;-62
2021/09/07 09:09:51;;;;;;;9.23;6.25;;;;;;;31.85;37.40;98689.16;4963365;28;20793;-62
2021/09/07 09:12:17;;;;;;;10.65;6.55;;;;;;;29.23;38.20;98680.94;4963473;28;20034;-64
2021/09/07 09:14:46;;;;;;;9.98;6.72;;;;;;;28.90;38.38;98683.53;4963229;28;20091;-63
2021/09/07 09:17:18;;;;;;;9.60;6.78;;;;;;;28.17;40.16;98687.53;4960853;28;20470;-61
2021/09/07 09:20:00;;;;;;;12.07;6.50;;;;;;;29.86;38.68;98681.34;4962951;28;20039;-64
2021/09/07 09:22:56;;;;;;;8.48;6.05;;;;;;;29.47;39.98;98676.63;4963027;28;20043;-61
2021/09/07 09:25:24;;;;;;;10.80;6.13;;;;;;;30.37;37.81;98684.63;4962613;28;20038;-62
2021/09/07 09:27:58;;;;;;;10.70;6.13;;;;;;;29.72;38.82;98677.44;4963672;28;20034;-62
2021/09/07 09:30:27;;;;;;;9.10;6.53;;;;;;;28.29;38.95;98677.38;4963134;28;20412;-62
2021/09/07 09:32:54;;;;;;;8.55;6.47;;;;;;;29.18;39.25;98675.22;4963250;28;20057;-63
2021/09/07 09:35:19;;;;;;;8.90;6.22;;;;;;;29.92;39.30;98683.31;4962818;28;20077;-62
2021/09/07 09:37:55;;;;;;;10.27;6.30;;;;;;;28.40;41.22;98673.59;4962258;28;20026;-62
2021/09/07 09:40:21;;;;;;;11.52;6.13;;;;;;;29.24;39.92;98679.94;4962483;28;20033;-63
2021/09/07 09:42:50;;;;;;;9.02;6.63;;;;;;;30.33;38.00;98672.53;4964073;28;20082;-62
2021/09/07 09:45:17;;;;;;;14.75;6.60;;;;;;;29.29;39.53;98666.03;4962746;28;20034;-63
2021/09/07 09:47:55;;;;;;;9.35;6.70;;;;;;;29.53;39.25;98667.88;4963598;28;20576;-62
2021/09/07 09:50:20;;;;;;;10.45;6.50;;;;;;;30.57;37.61;98666.22;4965235;28;20031;-62
2021/09/07 09:52:47;;;;;;;10.20;6.32;;;;;;;30.71;37.05;98668.16;4967820;28;20077;-62
2021/09/07 09:55:16;;;;;;;10.68;6.38;;;;;;;29.45;38.89;98670.56;4967203;28;20038;-62
2021/09/07 09:57:42;;;;;;;8.68;6.35;;;;;;;30.14;37.74;98661.13;4967294;28;20023;-62
2021/09/07 10:00:08;;;;;;;9.45;6.70;;;;;;;29.54;39.03;98656.97;4965433;28;20042;-64
2021/09/07 10:02:34;;;;;;;9.80;6.10;;;;;;;29.96;38.64;98661.31;4967363;28;20113;-61
2021/09/07 10:05:01;;;;;;;8.90;5.95;;;;;;;30.66;37.06;98658.91;4967904;28;20292;-62
2021/09/07 10:07:27;;;;;;;11.10;6.30;;;;;;;30.76;36.51;98662.25;4966773;28;20146;-62
2021/09/07 10:09:54;;;;;;;9.52;6.35;;;;;;;30.62;37.10;98661.16;4966996;28;20109;-62
2021/09/07 10:12:27;;;;;;;11.45;6.38;;;;;;;28.60;40.21;98656.25;4967091;28;20240;-62
2021/09/07 10:15:09;;;;;;;12.15;6.47;;;;;;;30.28;37.96;98656.03;4967387;28;20504;-63
2021/09/07 10:25:51;;;;;;;12.85;7.05;;;;;;;29.69;38.23;98642.84;4957305;28;20042;-62
2021/09/07 10:28:43;;;;;;;16.23;7.00;;;;;;;31.01;38.30;98641.44;4967358;28;20112;-64
2021/09/07 10:31:10;;;;;;;10.85;7.00;;;;;;;30.37;37.67;98649.63;4965815;28;20061;-62
2021/09/07 10:33:56;;;;;;;9.70;6.40;;;;;;;31.76;35.00;98641.69;4965122;28;20133;-62
2021/09/07 10:36:24;;;;;;;10.15;6.20;;;;;;;31.44;36.92;98643.63;4965817;28;20515;-62
2021/09/07 10:38:55;;;;;;;9.95;6.45;;;;;;;31.35;36.65;98636.63;4964984;28;20026;-63
2021/09/07 10:41:33;;;;;;;;;;;;;;;33.16;33.72;98633.63;4963935;28;20047;-62
2021/09/07 10:44:03;;;;;;;9.32;5.82;;;;;;;32.05;34.26;98630.13;4965982;28;19914;-64
2021/09/07 10:46:38;;;;;;;10.93;6.18;;;;;;;30.44;37.45;98634.47;4964831;28;20042;-64
2021/09/07 10:49:22;;;;;;;13.10;6.25;;;;;;;31.18;34.42;98628.69;4965647;28;20027;-63
2021/09/07 10:52:12;;;;;;;8.82;6.07;;;;;;;30.26;35.07;98626.59;4966036;28;20039;-62
2021/09/07 10:54:53;;;;;;;11.10;6.70;;;;;;;29.54;37.45;98622.03;4965867;28;20053;-62
2021/09/07 10:57:41;;;;;;;9.20;6.07;;;;;;;29.81;36.35;98627.22;4965711;28;20039;-62
2021/09/07 11:00:18;;;;;;;9.70;5.90;;;;;;;31.02;35.74;98618.84;4965380;28;20069;-60
2021/09/07 11:02:57;;;;;;;9.57;5.88;;;;;;;30.21;35.41;98622.75;4964818;28;20049;-63
2021/09/07 11:05:22;;;;;;;8.15;5.30;;;;;;;30.02;36.42;98616.75;4964449;28;20142;-61
2021/09/07 11:07:48;;;;;;;8.37;5.87;;;;;;;31.06;35.58;98617.50;4966130;28;20034;-61
2021/09/07 11:10:16;;;;;;;8.65;5.28;;;;;;;29.55;35.07;98612.09;4964936;28;20027;-63
2021/09/07 11:13:04;;;;;;;8.15;5.80;;;;;;;29.19;36.46;98617.81;4965783;28;20034;-62
2021/09/07 11:15:33;;;;;;;7.85;5.53;;;;;;;29.21;36.45;98619.31;4964326;28;20047;-63
2021/09/07 11:18:00;;;;;;;7.55;5.43;;;;;;;30.30;34.61;98614.47;4965218;28;20459;-62
2021/09/07 11:20:30;;;;;;;9.32;5.45;;;;;;;31.24;33.95;98617.16;4964781;28;20042;-63
2021/09/07 11:22:59;;;;;;;8.68;5.90;;;;;;;31.53;33.60;98610.22;4965110;28;20042;-62
2021/09/07 11:25:25;;;;;;;11.23;5.78;;;;;;;30.64;35.80;98617.88;4964154;28;20034;-63
2021/09/07 11:28:01;;;;;;;9.43;6.07;;;;;;;29.98;36.00;98612.75;4964984;28;20030;-63
2021/09/07 11:30:44;;;;;;;9.68;6.15;;;;;;;31.08;34.41;98606.50;4965026;28;20479;-63